sensor_id;sensor_type;location;lat;lon;timestamp;temperature;humidity
21646;DHT22;10984;45.712;4.800;2022-07-12T00:01:43;19.80;99.90
21646;DHT22;10984;45.712;4.800;2022-07-12T00:04:09;19.80;99.90
21646;DHT22;10984;45.712;4.800;2022-07-12T00:06:34;19.80;99.90
21646;DHT22;10984;45.712;4.800;2022-07-12T00:09:00;19.70;99.90
21646;DHT22;10984;45.712;4.800;2022-07-12T00:11:25;19.70;99.90
21646;DHT22;10984;45.712;4.800;2022-07-12T00:13:51;19.70;99.90
21646;DHT22;10984;45.712;4.800;2022-07-12T00:16:17;19.70;99.90
21646;DHT22;10984;45.712;4.800;2022-07-12T00:18:42;19.70;99.90
21646;DHT22;10984;45.712;4.800;2022-07-12T00:21:08;19.60;99.90
21646;DHT22;10984;45.712;4.800;2022-07-12T00:23:34;19.60;99.90
21646;DHT22;10984;45.712;4.800;2022-07-12T00:26:00;19.60;99.90
21646;DHT22;10984;45.712;4.800;2022-07-12T00:28:30;19.50;99.90
21646;DHT22;10984;45.712;4.800;2022-07-12T00:30:57;19.50;99.90
21646;DHT22;10984;45.712;4.800;2022-07-12T00:33:23;19.50;99.90
21646;DHT22;10984;45.712;4.800;2022-07-12T00:35:48;19.50;99.90
21646;DHT22;10984;45.712;4.800;2022-07-12T00:38:14;19.50;99.90
21646;DHT22;10984;45.712;4.800;2022-07-12T00:40:40;19.50;99.90
21646;DHT22;10984;45.712;4.800;2022-07-12T00:43:05;19.40;99.90
21646;DHT22;10984;45.712;4.800;2022-07-12T00:45:31;19.40;99.90
21646;DHT22;10984;45.712;4.800;2022-07-12T00:47:57;19.40;99.90
21646;DHT22;10984;45.712;4.800;2022-07-12T00:50:23;19.30;99.90
21646;DHT22;10984;45.712;4.800;2022-07-12T00:52:52;19.30;99.90
21646;DHT22;10984;45.712;4.800;2022-07-12T00:55:19;19.30;99.90
21646;DHT22;10984;45.712;4.800;2022-07-12T00:57:46;19.30;99.90
21646;DHT22;10984;45.712;4.800;2022-07-12T01:00:18;19.30;99.90
21646;DHT22;10984;45.712;4.800;2022-07-12T01:02:45;19.30;99.90
21646;DHT22;10984;45.712;4.800;2022-07-12T01:05:12;19.30;99.90
21646;DHT22;10984;45.712;4.800;2022-07-12T01:07:38;19.30;99.90
21646;DHT22;10984;45.712;4.800;2022-07-12T01:10:05;19.30;99.90
21646;DHT22;10984;45.712;4.800;2022-07-12T01:12:33;19.30;99.90
21646;DHT22;10984;45.712;4.800;2022-07-12T01:14:59;19.30;99.90
21646;DHT22;10984;45.712;4.800;2022-07-12T01:17:27;19.30;99.90
21646;DHT22;10984;45.712;4.800;2022-07-12T01:22:40;19.20;99.90
21646;DHT22;10984;45.712;4.800;2022-07-12T01:25:07;19.20;99.90
21646;DHT22;10984;45.712;4.800;2022-07-12T01:27:33;19.20;99.90
21646;DHT22;10984;45.712;4.800;2022-07-12T01:30:02;19.20;99.90
21646;DHT22;10984;45.712;4.800;2022-07-12T01:32:28;19.20;99.90
21646;DHT22;10984;45.712;4.800;2022-07-12T01:34:58;19.20;99.90
21646;DHT22;10984;45.712;4.800;2022-07-12T01:37:28;19.20;99.90
21646;DHT22;10984;45.712;4.800;2022-07-12T01:39:55;19.20;99.90
21646;DHT22;10984;45.712;4.800;2022-07-12T01:42:22;19.20;99.90
21646;DHT22;10984;45.712;4.800;2022-07-12T01:44:49;19.20;99.90
21646;DHT22;10984;45.712;4.800;2022-07-12T01:50:02;19.20;99.90
21646;DHT22;10984;45.712;4.800;2022-07-12T01:52:28;19.20;99.90
21646;DHT22;10984;45.712;4.800;2022-07-12T01:54:54;19.10;99.90
21646;DHT22;10984;45.712;4.800;2022-07-12T01:57:21;19.10;99.90
21646;DHT22;10984;45.712;4.800;2022-07-12T01:59:47;19.10;99.90
21646;DHT22;10984;45.712;4.800;2022-07-12T02:02:13;19.10;99.90
21646;DHT22;10984;45.712;4.800;2022-07-12T02:04:39;19.10;99.90
21646;DHT22;10984;45.712;4.800;2022-07-12T02:07:05;19.00;99.90
21646;DHT22;10984;45.712;4.800;2022-07-12T02:09:31;18.90;99.90
21646;DHT22;10984;45.712;4.800;2022-07-12T02:11:57;18.90;99.90
21646;DHT22;10984;45.712;4.800;2022-07-12T02:14:23;18.80;99.90
21646;DHT22;10984;45.712;4.800;2022-07-12T02:16:49;18.80;99.90
21646;DHT22;10984;45.712;4.800;2022-07-12T02:19:15;18.80;99.90
21646;DHT22;10984;45.712;4.800;2022-07-12T02:21:41;18.70;99.90
21646;DHT22;10984;45.712;4.800;2022-07-12T02:24:07;18.70;99.90
21646;DHT22;10984;45.712;4.800;2022-07-12T02:26:35;18.70;99.90
21646;DHT22;10984;45.712;4.800;2022-07-12T02:29:01;18.70;99.90
21646;DHT22;10984;45.712;4.800;2022-07-12T02:31:27;18.70;99.90
21646;DHT22;10984;45.712;4.800;2022-07-12T02:33:53;18.70;99.90
21646;DHT22;10984;45.712;4.800;2022-07-12T02:36:18;18.70;99.90
21646;DHT22;10984;45.712;4.800;2022-07-12T02:38:44;18.80;99.90
21646;DHT22;10984;45.712;4.800;2022-07-12T02:41:10;18.80;99.90
21646;DHT22;10984;45.712;4.800;2022-07-12T02:43:35;18.90;99.90
21646;DHT22;10984;45.712;4.800;2022-07-12T02:46:20;18.90;99.90
21646;DHT22;10984;45.712;4.800;2022-07-12T02:48:46;18.90;99.90
21646;DHT22;10984;45.712;4.800;2022-07-12T02:51:11;18.90;99.90
21646;DHT22;10984;45.712;4.800;2022-07-12T02:53:38;18.90;99.90
21646;DHT22;10984;45.712;4.800;2022-07-12T02:56:04;18.90;99.90
21646;DHT22;10984;45.712;4.800;2022-07-12T02:58:30;18.90;99.90
21646;DHT22;10984;45.712;4.800;2022-07-12T03:00:55;18.80;99.90
21646;DHT22;10984;45.712;4.800;2022-07-12T03:03:21;18.80;99.90
21646;DHT22;10984;45.712;4.800;2022-07-12T03:05:47;18.70;99.90
21646;DHT22;10984;45.712;4.800;2022-07-12T03:08:13;18.70;99.90
21646;DHT22;10984;45.712;4.800;2022-07-12T03:10:39;18.70;99.90
21646;DHT22;10984;45.712;4.800;2022-07-12T03:13:05;18.70;99.90
21646;DHT22;10984;45.712;4.800;2022-07-12T03:15:32;18.60;99.90
21646;DHT22;10984;45.712;4.800;2022-07-12T03:17:59;18.60;99.90
21646;DHT22;10984;45.712;4.800;2022-07-12T03:20:25;18.60;99.90
21646;DHT22;10984;45.712;4.800;2022-07-12T03:22:51;18.60;99.90
21646;DHT22;10984;45.712;4.800;2022-07-12T03:25:19;18.70;99.90
21646;DHT22;10984;45.712;4.800;2022-07-12T03:27:45;18.70;99.90
21646;DHT22;10984;45.712;4.800;2022-07-12T03:30:11;18.70;99.90
21646;DHT22;10984;45.712;4.800;2022-07-12T03:32:37;18.70;99.90
21646;DHT22;10984;45.712;4.800;2022-07-12T03:35:03;18.70;99.90
21646;DHT22;10984;45.712;4.800;2022-07-12T03:37:48;18.70;99.90
21646;DHT22;10984;45.712;4.800;2022-07-12T03:40:33;18.60;99.90
21646;DHT22;10984;45.712;4.800;2022-07-12T03:43:17;18.60;99.90
21646;DHT22;10984;45.712;4.800;2022-07-12T03:45:43;18.60;99.90
21646;DHT22;10984;45.712;4.800;2022-07-12T03:48:10;18.60;99.90
21646;DHT22;10984;45.712;4.800;2022-07-12T03:50:36;18.60;99.90
21646;DHT22;10984;45.712;4.800;2022-07-12T03:53:02;18.60;99.90
21646;DHT22;10984;45.712;4.800;2022-07-12T03:55:28;18.50;99.90
21646;DHT22;10984;45.712;4.800;2022-07-12T03:57:54;18.50;99.90
21646;DHT22;10984;45.712;4.800;2022-07-12T04:00:19;18.40;99.90
21646;DHT22;10984;45.712;4.800;2022-07-12T04:02:45;18.40;99.90
21646;DHT22;10984;45.712;4.800;2022-07-12T04:05:11;18.40;99.90
21646;DHT22;10984;45.712;4.800;2022-07-12T04:07:38;18.30;99.90
21646;DHT22;10984;45.712;4.800;2022-07-12T04:10:05;18.40;99.90
21646;DHT22;10984;45.712;4.800;2022-07-12T04:12:31;18.40;99.90
21646;DHT22;10984;45.712;4.800;2022-07-12T04:14:56;18.40;99.90
21646;DHT22;10984;45.712;4.800;2022-07-12T04:17:22;18.40;99.90
21646;DHT22;10984;45.712;4.800;2022-07-12T04:19:48;18.40;99.90
21646;DHT22;10984;45.712;4.800;2022-07-12T04:22:13;18.50;99.90
21646;DHT22;10984;45.712;4.800;2022-07-12T04:24:39;18.50;99.90
21646;DHT22;10984;45.712;4.800;2022-07-12T04:27:05;18.60;99.90
21646;DHT22;10984;45.712;4.800;2022-07-12T04:29:30;18.50;99.90
21646;DHT22;10984;45.712;4.800;2022-07-12T04:31:56;18.50;99.90
21646;DHT22;10984;45.712;4.800;2022-07-12T04:34:22;18.50;99.90
21646;DHT22;10984;45.712;4.800;2022-07-12T04:36:48;18.50;99.90
21646;DHT22;10984;45.712;4.800;2022-07-12T04:39:14;18.50;99.90
21646;DHT22;10984;45.712;4.800;2022-07-12T04:41:40;18.60;99.90
21646;DHT22;10984;45.712;4.800;2022-07-12T04:44:07;18.70;99.90
21646;DHT22;10984;45.712;4.800;2022-07-12T04:46:32;18.80;99.90
21646;DHT22;10984;45.712;4.800;2022-07-12T04:48:59;19.10;99.90
21646;DHT22;10984;45.712;4.800;2022-07-12T04:51:24;19.70;99.90
21646;DHT22;10984;45.712;4.800;2022-07-12T04:53:50;20.40;99.90
21646;DHT22;10984;45.712;4.800;2022-07-12T04:56:16;21.40;99.90
21646;DHT22;10984;45.712;4.800;2022-07-12T04:58:41;22.50;99.90
21646;DHT22;10984;45.712;4.800;2022-07-12T05:01:07;23.80;99.90
21646;DHT22;10984;45.712;4.800;2022-07-12T05:03:34;25.10;99.90
21646;DHT22;10984;45.712;4.800;2022-07-12T05:06:00;26.30;99.90
21646;DHT22;10984;45.712;4.800;2022-07-12T05:08:25;27.50;99.90
21646;DHT22;10984;45.712;4.800;2022-07-12T05:10:51;28.10;99.90
21646;DHT22;10984;45.712;4.800;2022-07-12T05:13:17;28.90;99.90
21646;DHT22;10984;45.712;4.800;2022-07-12T05:15:42;29.10;99.90
21646;DHT22;10984;45.712;4.800;2022-07-12T05:18:08;29.90;99.90
21646;DHT22;10984;45.712;4.800;2022-07-12T05:20:33;30.70;99.90
21646;DHT22;10984;45.712;4.800;2022-07-12T05:22:59;30.90;99.90
21646;DHT22;10984;45.712;4.800;2022-07-12T05:25:25;31.20;99.90
21646;DHT22;10984;45.712;4.800;2022-07-12T05:27:50;31.00;99.90
21646;DHT22;10984;45.712;4.800;2022-07-12T05:30:16;31.40;99.90
21646;DHT22;10984;45.712;4.800;2022-07-12T05:32:42;31.60;99.90
21646;DHT22;10984;45.712;4.800;2022-07-12T05:35:08;31.90;99.90
21646;DHT22;10984;45.712;4.800;2022-07-12T05:37:34;31.40;99.90
21646;DHT22;10984;45.712;4.800;2022-07-12T05:40:00;31.70;99.90
21646;DHT22;10984;45.712;4.800;2022-07-12T05:42:25;31.70;99.90
21646;DHT22;10984;45.712;4.800;2022-07-12T05:44:51;31.60;99.90
21646;DHT22;10984;45.712;4.800;2022-07-12T05:47:16;31.80;99.90
21646;DHT22;10984;45.712;4.800;2022-07-12T05:49:42;32.20;99.90
21646;DHT22;10984;45.712;4.800;2022-07-12T05:52:08;32.50;99.90
21646;DHT22;10984;45.712;4.800;2022-07-12T05:54:52;32.50;99.90
21646;DHT22;10984;45.712;4.800;2022-07-12T05:57:18;33.30;99.90
21646;DHT22;10984;45.712;4.800;2022-07-12T05:59:45;33.30;99.90
21646;DHT22;10984;45.712;4.800;2022-07-12T06:02:11;34.00;99.90
21646;DHT22;10984;45.712;4.800;2022-07-12T06:04:36;34.40;99.90
21646;DHT22;10984;45.712;4.800;2022-07-12T06:07:02;34.50;99.90
21646;DHT22;10984;45.712;4.800;2022-07-12T06:09:36;34.40;99.90
21646;DHT22;10984;45.712;4.800;2022-07-12T06:12:02;34.60;99.90
21646;DHT22;10984;45.712;4.800;2022-07-12T06:14:28;34.90;99.90
21646;DHT22;10984;45.712;4.800;2022-07-12T06:16:53;35.20;99.90
21646;DHT22;10984;45.712;4.800;2022-07-12T06:19:19;35.90;99.90
21646;DHT22;10984;45.712;4.800;2022-07-12T06:21:44;36.00;99.90
21646;DHT22;10984;45.712;4.800;2022-07-12T06:24:10;35.50;99.90
21646;DHT22;10984;45.712;4.800;2022-07-12T06:26:36;35.30;99.60
21646;DHT22;10984;45.712;4.800;2022-07-12T06:29:02;35.70;99.40
21646;DHT22;10984;45.712;4.800;2022-07-12T06:31:27;35.60;99.30
21646;DHT22;10984;45.712;4.800;2022-07-12T06:33:53;35.20;99.90
21646;DHT22;10984;45.712;4.800;2022-07-12T06:36:19;35.50;98.60
21646;DHT22;10984;45.712;4.800;2022-07-12T06:38:45;35.30;98.80
21646;DHT22;10984;45.712;4.800;2022-07-12T06:41:10;36.00;98.60
21646;DHT22;10984;45.712;4.800;2022-07-12T06:43:36;36.30;98.40
21646;DHT22;10984;45.712;4.800;2022-07-12T06:46:02;36.20;97.50
21646;DHT22;10984;45.712;4.800;2022-07-12T06:48:27;35.60;97.40
21646;DHT22;10984;45.712;4.800;2022-07-12T06:50:54;34.20;98.30
21646;DHT22;10984;45.712;4.800;2022-07-12T06:53:19;34.60;98.50
21646;DHT22;10984;45.712;4.800;2022-07-12T06:55:45;34.50;98.40
21646;DHT22;10984;45.712;4.800;2022-07-12T06:58:11;34.50;97.90
21646;DHT22;10984;45.712;4.800;2022-07-12T07:00:37;34.40;97.80
21646;DHT22;10984;45.712;4.800;2022-07-12T07:03:06;34.30;98.10
21646;DHT22;10984;45.712;4.800;2022-07-12T07:05:31;34.30;97.80
21646;DHT22;10984;45.712;4.800;2022-07-12T07:07:57;33.90;98.00
21646;DHT22;10984;45.712;4.800;2022-07-12T07:10:23;33.70;98.30
21646;DHT22;10984;45.712;4.800;2022-07-12T07:12:49;33.50;98.50
21646;DHT22;10984;45.712;4.800;2022-07-12T07:15:14;34.00;98.20
21646;DHT22;10984;45.712;4.800;2022-07-12T07:17:42;33.90;98.40
21646;DHT22;10984;45.712;4.800;2022-07-12T07:20:09;33.60;98.80
21646;DHT22;10984;45.712;4.800;2022-07-12T07:22:35;33.50;98.60
21646;DHT22;10984;45.712;4.800;2022-07-12T07:25:01;33.30;98.70
21646;DHT22;10984;45.712;4.800;2022-07-12T07:27:27;32.40;99.00
21646;DHT22;10984;45.712;4.800;2022-07-12T07:29:52;32.90;99.10
21646;DHT22;10984;45.712;4.800;2022-07-12T07:32:37;33.20;98.70
21646;DHT22;10984;45.712;4.800;2022-07-12T07:35:03;33.90;98.50
21646;DHT22;10984;45.712;4.800;2022-07-12T07:37:32;34.10;98.40
21646;DHT22;10984;45.712;4.800;2022-07-12T07:39:57;33.90;98.50
21646;DHT22;10984;45.712;4.800;2022-07-12T07:42:23;34.00;98.30
21646;DHT22;10984;45.712;4.800;2022-07-12T07:44:49;33.80;98.00
21646;DHT22;10984;45.712;4.800;2022-07-12T07:47:14;33.60;97.90
21646;DHT22;10984;45.712;4.800;2022-07-12T07:49:40;33.00;98.40
21646;DHT22;10984;45.712;4.800;2022-07-12T07:52:05;32.90;98.70
21646;DHT22;10984;45.712;4.800;2022-07-12T07:54:31;32.30;99.00
21646;DHT22;10984;45.712;4.800;2022-07-12T07:56:57;32.40;99.10
21646;DHT22;10984;45.712;4.800;2022-07-12T07:59:22;32.80;98.90
21646;DHT22;10984;45.712;4.800;2022-07-12T08:01:48;32.00;99.20
21646;DHT22;10984;45.712;4.800;2022-07-12T08:04:18;31.00;99.90
21646;DHT22;10984;45.712;4.800;2022-07-12T08:06:44;30.20;99.90
21646;DHT22;10984;45.712;4.800;2022-07-12T08:09:11;29.50;99.90
21646;DHT22;10984;45.712;4.800;2022-07-12T08:11:36;29.10;99.90
21646;DHT22;10984;45.712;4.800;2022-07-12T08:14:03;28.70;99.90
21646;DHT22;10984;45.712;4.800;2022-07-12T08:16:29;28.30;99.90
21646;DHT22;10984;45.712;4.800;2022-07-12T08:18:55;27.90;99.90
21646;DHT22;10984;45.712;4.800;2022-07-12T08:21:21;27.70;99.90
21646;DHT22;10984;45.712;4.800;2022-07-12T08:23:48;27.70;99.90
21646;DHT22;10984;45.712;4.800;2022-07-12T08:26:14;27.40;99.90
21646;DHT22;10984;45.712;4.800;2022-07-12T08:28:39;27.50;99.90
21646;DHT22;10984;45.712;4.800;2022-07-12T08:31:05;27.70;99.90
21646;DHT22;10984;45.712;4.800;2022-07-12T08:33:31;27.60;99.90
21646;DHT22;10984;45.712;4.800;2022-07-12T08:35:57;27.50;99.90
21646;DHT22;10984;45.712;4.800;2022-07-12T08:38:23;27.70;99.90
21646;DHT22;10984;45.712;4.800;2022-07-12T08:40:49;27.70;99.90
21646;DHT22;10984;45.712;4.800;2022-07-12T08:43:14;27.80;99.90
21646;DHT22;10984;45.712;4.800;2022-07-12T08:45:40;28.00;99.90
21646;DHT22;10984;45.712;4.800;2022-07-12T08:48:24;28.00;99.90
21646;DHT22;10984;45.712;4.800;2022-07-12T08:51:09;27.90;99.90
21646;DHT22;10984;45.712;4.800;2022-07-12T08:53:36;28.20;99.90
21646;DHT22;10984;45.712;4.800;2022-07-12T08:59:24;28.70;99.90
21646;DHT22;10984;45.712;4.800;2022-07-12T09:01:51;28.70;99.90
21646;DHT22;10984;45.712;4.800;2022-07-12T09:04:35;28.70;99.90
21646;DHT22;10984;45.712;4.800;2022-07-12T09:07:13;28.60;99.90
21646;DHT22;10984;45.712;4.800;2022-07-12T09:09:39;28.50;99.90
21646;DHT22;10984;45.712;4.800;2022-07-12T09:12:05;28.20;99.90
21646;DHT22;10984;45.712;4.800;2022-07-12T09:14:31;28.30;99.90
21646;DHT22;10984;45.712;4.800;2022-07-12T09:17:15;28.10;99.90
21646;DHT22;10984;45.712;4.800;2022-07-12T09:20:05;27.90;99.90
21646;DHT22;10984;45.712;4.800;2022-07-12T09:22:33;27.90;99.90
21646;DHT22;10984;45.712;4.800;2022-07-12T09:25:09;27.90;99.90
21646;DHT22;10984;45.712;4.800;2022-07-12T09:27:47;27.90;99.90
21646;DHT22;10984;45.712;4.800;2022-07-12T09:30:13;28.10;99.90
21646;DHT22;10984;45.712;4.800;2022-07-12T09:36:11;28.00;99.90
21646;DHT22;10984;45.712;4.800;2022-07-12T09:38:40;27.80;99.90
21646;DHT22;10984;45.712;4.800;2022-07-12T09:41:21;27.80;99.90
21646;DHT22;10984;45.712;4.800;2022-07-12T09:43:47;27.90;99.90
21646;DHT22;10984;45.712;4.800;2022-07-12T09:46:14;28.10;99.90
21646;DHT22;10984;45.712;4.800;2022-07-12T09:48:40;28.10;99.90
21646;DHT22;10984;45.712;4.800;2022-07-12T09:51:08;28.10;99.90
21646;DHT22;10984;45.712;4.800;2022-07-12T09:53:53;28.30;99.90
21646;DHT22;10984;45.712;4.800;2022-07-12T09:56:20;28.50;99.90
21646;DHT22;10984;45.712;4.800;2022-07-12T09:59:05;28.20;99.90
21646;DHT22;10984;45.712;4.800;2022-07-12T10:01:32;28.00;99.90
21646;DHT22;10984;45.712;4.800;2022-07-12T10:03:59;28.00;99.90
21646;DHT22;10984;45.712;4.800;2022-07-12T10:06:27;28.10;99.90
21646;DHT22;10984;45.712;4.800;2022-07-12T10:08:55;28.10;99.90
21646;DHT22;10984;45.712;4.800;2022-07-12T10:11:24;28.20;99.90
21646;DHT22;10984;45.712;4.800;2022-07-12T10:13:51;28.20;99.90
21646;DHT22;10984;45.712;4.800;2022-07-12T10:16:25;28.10;99.90
21646;DHT22;10984;45.712;4.800;2022-07-12T10:22:32;28.10;99.90
21646;DHT22;10984;45.712;4.800;2022-07-12T10:24:58;28.20;99.90
21646;DHT22;10984;45.712;4.800;2022-07-12T10:27:42;28.20;99.90
21646;DHT22;10984;45.712;4.800;2022-07-12T10:30:26;28.10;99.90
21646;DHT22;10984;45.712;4.800;2022-07-12T10:36:14;28.30;99.90
21646;DHT22;10984;45.712;4.800;2022-07-12T10:38:40;28.40;99.90
21646;DHT22;10984;45.712;4.800;2022-07-12T10:41:24;28.50;99.90
21646;DHT22;10984;45.712;4.800;2022-07-12T10:44:08;28.50;99.90
21646;DHT22;10984;45.712;4.800;2022-07-12T10:46:34;28.60;99.90
21646;DHT22;10984;45.712;4.800;2022-07-12T10:52:24;28.60;99.90
21646;DHT22;10984;45.712;4.800;2022-07-12T10:57:53;28.60;99.90
21646;DHT22;10984;45.712;4.800;2022-07-12T11:00:20;28.70;99.90
21646;DHT22;10984;45.712;4.800;2022-07-12T11:02:48;28.70;99.90
21646;DHT22;10984;45.712;4.800;2022-07-12T11:05:13;28.70;99.90
21646;DHT22;10984;45.712;4.800;2022-07-12T11:07:39;28.70;99.90
21646;DHT22;10984;45.712;4.800;2022-07-12T11:10:06;28.70;99.90
21646;DHT22;10984;45.712;4.800;2022-07-12T11:12:32;28.70;99.90
21646;DHT22;10984;45.712;4.800;2022-07-12T11:14:59;28.90;99.90
21646;DHT22;10984;45.712;4.800;2022-07-12T11:17:26;28.80;99.90
21646;DHT22;10984;45.712;4.800;2022-07-12T11:22:48;28.80;99.90
21646;DHT22;10984;45.712;4.800;2022-07-12T11:25:14;28.90;99.90
21646;DHT22;10984;45.712;4.800;2022-07-12T11:27:40;28.90;99.90
21646;DHT22;10984;45.712;4.800;2022-07-12T11:30:07;29.00;99.90
21646;DHT22;10984;45.712;4.800;2022-07-12T11:32:52;29.00;99.90
21646;DHT22;10984;45.712;4.800;2022-07-12T11:38:02;29.10;99.90
21646;DHT22;10984;45.712;4.800;2022-07-12T11:40:29;29.20;99.90
21646;DHT22;10984;45.712;4.800;2022-07-12T11:43:14;29.20;99.90
21646;DHT22;10984;45.712;4.800;2022-07-12T11:45:39;29.10;99.90
21646;DHT22;10984;45.712;4.800;2022-07-12T11:48:07;29.20;99.90
21646;DHT22;10984;45.712;4.800;2022-07-12T11:50:33;29.10;99.90
21646;DHT22;10984;45.712;4.800;2022-07-12T11:53:03;29.10;99.90
21646;DHT22;10984;45.712;4.800;2022-07-12T11:55:29;29.10;99.90
21646;DHT22;10984;45.712;4.800;2022-07-12T11:58:14;29.10;99.90
21646;DHT22;10984;45.712;4.800;2022-07-12T12:00:41;29.30;99.90
21646;DHT22;10984;45.712;4.800;2022-07-12T12:03:07;29.20;99.90
21646;DHT22;10984;45.712;4.800;2022-07-12T12:05:34;29.20;99.90
21646;DHT22;10984;45.712;4.800;2022-07-12T12:08:01;29.30;99.90
21646;DHT22;10984;45.712;4.800;2022-07-12T12:10:27;29.40;99.90
21646;DHT22;10984;45.712;4.800;2022-07-12T12:12:55;29.30;99.90
21646;DHT22;10984;45.712;4.800;2022-07-12T12:15:40;29.20;99.90
21646;DHT22;10984;45.712;4.800;2022-07-12T12:18:07;29.20;99.60
21646;DHT22;10984;45.712;4.800;2022-07-12T12:20:38;29.20;99.60
21646;DHT22;10984;45.712;4.800;2022-07-12T12:23:05;29.30;99.90
21646;DHT22;10984;45.712;4.800;2022-07-12T12:25:32;29.40;99.90
21646;DHT22;10984;45.712;4.800;2022-07-12T12:27:59;29.30;99.90
21646;DHT22;10984;45.712;4.800;2022-07-12T12:30:26;29.30;97.60
21646;DHT22;10984;45.712;4.800;2022-07-12T12:32:54;29.30;98.70
21646;DHT22;10984;45.712;4.800;2022-07-12T12:35:38;29.40;98.70
21646;DHT22;10984;45.712;4.800;2022-07-12T12:38:23;29.50;97.60
21646;DHT22;10984;45.712;4.800;2022-07-12T12:40:56;29.70;98.80
21646;DHT22;10984;45.712;4.800;2022-07-12T12:43:22;29.60;99.20
21646;DHT22;10984;45.712;4.800;2022-07-12T12:46:06;29.70;99.30
21646;DHT22;10984;45.712;4.800;2022-07-12T12:48:33;29.80;98.70
21646;DHT22;10984;45.712;4.800;2022-07-12T12:51:17;29.80;97.80
21646;DHT22;10984;45.712;4.800;2022-07-12T12:53:43;29.70;98.50
21646;DHT22;10984;45.712;4.800;2022-07-12T12:56:13;29.60;97.60
21646;DHT22;10984;45.712;4.800;2022-07-12T12:58:40;29.60;97.30
21646;DHT22;10984;45.712;4.800;2022-07-12T13:01:07;29.70;96.50
21646;DHT22;10984;45.712;4.800;2022-07-12T13:03:33;29.80;95.90
21646;DHT22;10984;45.712;4.800;2022-07-12T13:05:59;29.80;95.80
21646;DHT22;10984;45.712;4.800;2022-07-12T13:08:25;29.80;95.90
21646;DHT22;10984;45.712;4.800;2022-07-12T13:10:53;29.80;96.00
21646;DHT22;10984;45.712;4.800;2022-07-12T13:13:37;29.80;96.00
21646;DHT22;10984;45.712;4.800;2022-07-12T13:16:04;29.80;95.70
21646;DHT22;10984;45.712;4.800;2022-07-12T13:18:30;29.90;94.40
21646;DHT22;10984;45.712;4.800;2022-07-12T13:20:55;29.90;93.00
21646;DHT22;10984;45.712;4.800;2022-07-12T13:23:21;30.00;93.90
21646;DHT22;10984;45.712;4.800;2022-07-12T13:25:47;30.00;94.40
21646;DHT22;10984;45.712;4.800;2022-07-12T13:28:12;29.90;93.60
21646;DHT22;10984;45.712;4.800;2022-07-12T13:30:38;29.90;94.70
21646;DHT22;10984;45.712;4.800;2022-07-12T13:33:04;29.80;95.10
21646;DHT22;10984;45.712;4.800;2022-07-12T13:35:29;29.80;94.80
21646;DHT22;10984;45.712;4.800;2022-07-12T13:37:55;29.90;95.90
21646;DHT22;10984;45.712;4.800;2022-07-12T13:40:21;30.00;95.80
21646;DHT22;10984;45.712;4.800;2022-07-12T13:42:52;29.90;95.20
21646;DHT22;10984;45.712;4.800;2022-07-12T13:45:22;29.80;94.60
21646;DHT22;10984;45.712;4.800;2022-07-12T13:47:51;29.80;94.20
21646;DHT22;10984;45.712;4.800;2022-07-12T13:50:20;29.70;94.30
21646;DHT22;10984;45.712;4.800;2022-07-12T13:52:46;29.70;95.00
21646;DHT22;10984;45.712;4.800;2022-07-12T13:55:14;29.80;94.60
21646;DHT22;10984;45.712;4.800;2022-07-12T13:57:41;29.80;94.40
21646;DHT22;10984;45.712;4.800;2022-07-12T14:00:25;29.80;94.60
21646;DHT22;10984;45.712;4.800;2022-07-12T14:02:51;29.80;93.60
21646;DHT22;10984;45.712;4.800;2022-07-12T14:05:17;29.70;93.90
21646;DHT22;10984;45.712;4.800;2022-07-12T14:07:43;29.70;94.80
21646;DHT22;10984;45.712;4.800;2022-07-12T14:10:10;29.80;94.80
21646;DHT22;10984;45.712;4.800;2022-07-12T14:12:37;29.80;94.30
21646;DHT22;10984;45.712;4.800;2022-07-12T14:15:03;29.70;94.00
21646;DHT22;10984;45.712;4.800;2022-07-12T14:17:51;29.70;93.60
21646;DHT22;10984;45.712;4.800;2022-07-12T14:20:19;29.80;93.80
21646;DHT22;10984;45.712;4.800;2022-07-12T14:22:45;29.90;94.50
21646;DHT22;10984;45.712;4.800;2022-07-12T14:25:11;29.90;94.90
21646;DHT22;10984;45.712;4.800;2022-07-12T14:27:38;29.90;94.40
21646;DHT22;10984;45.712;4.800;2022-07-12T14:30:05;29.80;94.20
21646;DHT22;10984;45.712;4.800;2022-07-12T14:32:49;29.90;94.40
21646;DHT22;10984;45.712;4.800;2022-07-12T14:35:15;29.90;94.00
21646;DHT22;10984;45.712;4.800;2022-07-12T14:37:41;29.90;93.80
21646;DHT22;10984;45.712;4.800;2022-07-12T14:40:08;29.90;93.60
21646;DHT22;10984;45.712;4.800;2022-07-12T14:42:34;29.90;93.90
21646;DHT22;10984;45.712;4.800;2022-07-12T14:44:59;29.90;93.20
21646;DHT22;10984;45.712;4.800;2022-07-12T14:47:25;30.00;93.10
21646;DHT22;10984;45.712;4.800;2022-07-12T14:49:51;30.00;93.00
21646;DHT22;10984;45.712;4.800;2022-07-12T14:52:19;30.10;92.70
21646;DHT22;10984;45.712;4.800;2022-07-12T14:54:45;30.10;91.80
21646;DHT22;10984;45.712;4.800;2022-07-12T14:57:11;30.10;91.30
21646;DHT22;10984;45.712;4.800;2022-07-12T14:59:36;30.00;91.90
21646;DHT22;10984;45.712;4.800;2022-07-12T15:02:03;29.90;91.10
21646;DHT22;10984;45.712;4.800;2022-07-12T15:04:29;30.00;91.00
21646;DHT22;10984;45.712;4.800;2022-07-12T15:06:54;29.90;91.30
21646;DHT22;10984;45.712;4.800;2022-07-12T15:09:20;29.90;90.90
21646;DHT22;10984;45.712;4.800;2022-07-12T15:11:46;30.00;91.00
21646;DHT22;10984;45.712;4.800;2022-07-12T15:14:12;30.00;90.60
21646;DHT22;10984;45.712;4.800;2022-07-12T15:16:37;30.00;89.80
21646;DHT22;10984;45.712;4.800;2022-07-12T15:19:03;30.00;90.30
21646;DHT22;10984;45.712;4.800;2022-07-12T15:21:29;30.00;90.90
21646;DHT22;10984;45.712;4.800;2022-07-12T15:23:55;30.00;91.50
21646;DHT22;10984;45.712;4.800;2022-07-12T15:26:20;30.00;92.40
21646;DHT22;10984;45.712;4.800;2022-07-12T15:29:05;29.90;92.00
21646;DHT22;10984;45.712;4.800;2022-07-12T15:31:31;29.90;92.20
21646;DHT22;10984;45.712;4.800;2022-07-12T15:33:58;29.90;92.40
21646;DHT22;10984;45.712;4.800;2022-07-12T15:36:25;29.90;91.30
21646;DHT22;10984;45.712;4.800;2022-07-12T15:38:51;29.80;91.30
21646;DHT22;10984;45.712;4.800;2022-07-12T15:41:17;29.80;89.40
21646;DHT22;10984;45.712;4.800;2022-07-12T15:43:43;29.80;91.10
21646;DHT22;10984;45.712;4.800;2022-07-12T15:46:10;29.80;91.20
21646;DHT22;10984;45.712;4.800;2022-07-12T15:48:37;29.80;91.80
21646;DHT22;10984;45.712;4.800;2022-07-12T15:51:04;29.90;92.40
21646;DHT22;10984;45.712;4.800;2022-07-12T15:53:30;29.80;92.00
21646;DHT22;10984;45.712;4.800;2022-07-12T15:55:58;29.70;92.00
21646;DHT22;10984;45.712;4.800;2022-07-12T15:58:43;29.70;92.10
21646;DHT22;10984;45.712;4.800;2022-07-12T16:01:09;29.80;92.20
21646;DHT22;10984;45.712;4.800;2022-07-12T16:03:34;29.80;91.60
21646;DHT22;10984;45.712;4.800;2022-07-12T16:06:02;29.80;91.60